createdAt,value
2023-02-23T00:04:52.583Z,5.71
2023-02-23T00:09:58.752Z,5.67
2023-02-23T00:15:02.435Z,5.65
2023-02-23T00:20:13.421Z,5.62
2023-02-23T00:25:18.818Z,5.62
2023-02-23T00:30:22.122Z,5.59
2023-02-23T00:35:25.331Z,5.54
2023-02-23T00:40:30.266Z,5.52
2023-02-23T00:45:34.278Z,5.49
2023-02-23T00:50:39.514Z,5.45
2023-02-23T00:55:43.343Z,5.43
2023-02-23T01:00:46.897Z,5.40
2023-02-23T01:05:50.504Z,5.37
2023-02-23T01:10:54.079Z,5.35
2023-02-23T01:15:57.442Z,5.33
2023-02-23T01:21:05.738Z,5.31
2023-02-23T01:26:19.287Z,5.29
2023-02-23T01:31:24.708Z,5.26
2023-02-23T01:36:29.476Z,5.20
2023-02-23T01:41:34.360Z,5.17
2023-02-23T01:46:40.106Z,5.15
2023-02-23T01:51:48.897Z,5.10
2023-02-23T01:56:58.862Z,5.09
2023-02-23T02:02:05.564Z,5.06
2023-02-23T02:07:10.383Z,5.03
2023-02-23T02:12:15.251Z,5.01
2023-02-23T02:17:26.241Z,4.98
2023-02-23T02:22:50.698Z,4.96
2023-02-23T02:28:04.575Z,4.94
2023-02-23T02:33:32.382Z,4.92
2023-02-23T02:38:54.102Z,4.88
2023-02-23T02:44:25.636Z,4.86
2023-02-23T02:49:43.094Z,4.83
2023-02-23T02:54:57.413Z,4.83
2023-02-23T03:00:20.718Z,4.82
2023-02-23T03:05:57.746Z,4.78
2023-02-23T03:11:25.355Z,4.75
2023-02-23T03:17:08.636Z,4.75
2023-02-23T03:22:43.163Z,4.73
2023-02-23T03:28:27.996Z,4.68
2023-02-23T03:34:18.437Z,4.65
2023-02-23T03:39:55.125Z,4.62
2023-02-23T03:45:24.503Z,4.58
2023-02-23T03:51:00.229Z,4.55
2023-02-23T03:56:23.014Z,4.53
2023-02-23T04:01:47.017Z,4.49
2023-02-23T04:07:11.519Z,4.46
2023-02-23T04:12:59.232Z,4.44
2023-02-23T04:18:07.177Z,4.43
2023-02-23T04:23:11.438Z,4.42
2023-02-23T04:28:14.938Z,4.38
2023-02-23T04:33:22.334Z,4.35
2023-02-23T04:38:25.992Z,4.33
2023-02-23T04:43:29.387Z,4.31
2023-02-23T04:48:32.994Z,4.30
2023-02-23T04:53:36.242Z,4.29
2023-02-23T04:58:39.686Z,4.28
2023-02-23T05:03:43.076Z,4.25
2023-02-23T05:08:46.570Z,4.21
2023-02-23T05:13:49.931Z,4.17
2023-02-23T05:18:54.134Z,4.14
2023-02-23T05:23:58.419Z,4.13
2023-02-23T05:29:35.307Z,4.12
2023-02-23T05:34:43.289Z,4.10
2023-02-23T05:39:47.545Z,4.09
2023-02-23T05:44:50.819Z,4.05
2023-02-23T05:49:54.530Z,4.04
2023-02-23T05:54:58.065Z,4.01
2023-02-23T06:00:01.646Z,4.03
2023-02-23T06:05:09.731Z,4.05
2023-02-23T06:10:13.551Z,4.06
2023-02-23T06:15:17.039Z,4.11
2023-02-23T06:20:20.215Z,4.14
2023-02-23T06:25:24.355Z,4.18
2023-02-23T06:30:30.344Z,4.22
2023-02-23T06:35:35.175Z,4.25
2023-02-23T06:40:40.030Z,4.30
2023-02-23T06:45:47.380Z,4.47
2023-02-23T06:50:50.946Z,4.56
2023-02-23T06:55:54.318Z,4.59
2023-02-23T07:00:59.740Z,4.61
2023-02-23T07:06:04.843Z,4.64
2023-02-23T07:17:36.030Z,4.71
2023-02-23T07:22:40.043Z,4.74
2023-02-23T07:28:15.999Z,4.80
2023-02-23T07:33:21.602Z,4.90
2023-02-23T07:38:26.889Z,5.00
2023-02-23T07:43:30.433Z,5.05
2023-02-23T07:49:07.088Z,5.12
2023-02-23T07:54:43.180Z,5.21
2023-02-23T08:00:52.208Z,5.31
2023-02-23T08:05:56.750Z,5.40
2023-02-23T08:11:05.190Z,5.47
2023-02-23T08:16:08.880Z,5.54
2023-02-23T08:21:12.288Z,5.64
2023-02-23T08:26:15.549Z,5.74
2023-02-23T08:31:21.665Z,5.84
2023-02-23T08:36:25.349Z,5.93
2023-02-23T08:41:28.748Z,6.00
2023-02-23T08:46:33.394Z,6.08
2023-02-23T08:51:37.350Z,6.17
2023-02-23T08:56:42.766Z,6.30
2023-02-23T09:01:46.202Z,6.42
2023-02-23T09:06:50.417Z,6.53
2023-02-23T09:11:53.805Z,6.63
2023-02-23T09:16:57.038Z,6.75
2023-02-23T09:22:00.148Z,6.90
2023-02-23T09:27:03.586Z,7.03
2023-02-23T09:32:07.075Z,7.14
2023-02-23T09:37:10.521Z,7.28
2023-02-23T09:42:28.637Z,7.41
2023-02-23T09:47:36.726Z,7.54
2023-02-23T09:52:45.227Z,7.68
2023-02-23T09:57:50.003Z,7.82
2023-02-23T10:03:08.513Z,7.97
2023-02-23T10:08:25.105Z,8.13
2023-02-23T10:13:31.158Z,8.28
2023-02-23T10:18:56.745Z,8.42
2023-02-23T10:24:27.397Z,8.57
2023-02-23T10:29:36.888Z,8.72
2023-02-23T10:34:41.304Z,8.88
2023-02-23T10:39:44.602Z,9.05
2023-02-23T10:44:48.343Z,9.24
2023-02-23T10:49:55.095Z,9.42
2023-02-23T10:55:00.794Z,9.62
2023-02-23T11:00:27.878Z,9.82
2023-02-23T11:05:43.523Z,10.04
2023-02-23T11:10:56.872Z,10.17
2023-02-23T11:16:20.014Z,10.21
2023-02-23T11:21:26.811Z,10.33
2023-02-23T11:26:37.776Z,10.47
2023-02-23T11:31:51.391Z,10.56
2023-02-23T11:37:07.733Z,10.71
2023-02-23T11:42:18.165Z,10.82
2023-02-23T11:47:23.503Z,10.83
2023-02-23T11:52:28.181Z,10.81
2023-02-23T11:57:34.588Z,10.89
2023-02-23T12:02:53.931Z,11.07
2023-02-23T12:08:04.800Z,11.22
2023-02-23T12:13:08.043Z,11.34
2023-02-23T12:18:38.177Z,11.50
2023-02-23T12:23:46.957Z,11.67
2023-02-23T12:29:11.529Z,11.74
2023-02-23T12:34:24.891Z,11.78
2023-02-23T12:39:37.321Z,11.76
2023-02-23T12:44:52.800Z,11.72
2023-02-23T12:50:07.548Z,11.64
2023-02-23T12:55:13.414Z,11.56
2023-02-23T13:00:39.476Z,11.53
2023-02-23T13:05:51.570Z,11.48
2023-02-23T13:11:04.063Z,11.51
2023-02-23T13:16:27.280Z,11.51
2023-02-23T13:21:45.181Z,11.55
2023-02-23T13:27:15.494Z,11.58
2023-02-23T13:32:29.536Z,11.65
2023-02-23T13:37:52.226Z,11.69
2023-02-23T13:43:18.034Z,11.73
2023-02-23T13:48:33.546Z,11.75
2023-02-23T13:53:48.075Z,11.79
2023-02-23T13:58:57.973Z,11.78
2023-02-23T14:04:05.256Z,11.76
2023-02-23T14:09:22.384Z,11.76
2023-02-23T14:14:32.055Z,11.76
2023-02-23T14:19:43.401Z,11.75
2023-02-23T14:24:46.717Z,11.72
2023-02-23T14:30:12.732Z,11.71
2023-02-23T14:35:34.984Z,11.69
2023-02-23T14:40:42.673Z,11.66
2023-02-23T14:45:47.030Z,11.61
2023-02-23T14:50:53.465Z,11.58
2023-02-23T14:55:59.440Z,11.57
2023-02-23T15:01:03.288Z,11.55
2023-02-23T15:06:07.844Z,11.51
2023-02-23T15:11:14.620Z,11.48
2023-02-23T15:16:37.657Z,11.44
2023-02-23T15:21:41.903Z,11.40
2023-02-23T15:26:46.738Z,11.36
2023-02-23T15:31:53.480Z,11.33
2023-02-23T15:37:00.290Z,11.30
2023-02-23T15:42:06.332Z,11.26
2023-02-23T15:47:33.889Z,11.21
2023-02-23T15:52:46.450Z,11.16
2023-02-23T15:58:02.027Z,11.11
2023-02-23T16:04:50.617Z,11.05
2023-02-23T16:15:43.682Z,10.89
2023-02-23T16:20:56.934Z,10.88
2023-02-23T16:27:01.037Z,10.90
2023-02-23T16:32:18.051Z,10.95
2023-02-23T16:37:26.336Z,10.91
2023-02-23T16:42:40.184Z,10.81
2023-02-23T16:48:56.861Z,10.73
2023-02-23T16:54:00.388Z,10.65
2023-02-23T16:59:05.066Z,10.59
2023-02-23T17:05:16.120Z,10.53
2023-02-23T17:10:36.852Z,10.48
2023-02-23T17:16:13.645Z,10.45
2023-02-23T17:21:24.483Z,10.40
2023-02-23T17:26:28.869Z,10.36
2023-02-23T17:32:05.513Z,10.33
2023-02-23T17:37:10.959Z,10.29
2023-02-23T17:42:47.097Z,10.25
2023-02-23T17:49:26.741Z,10.20
2023-02-23T18:00:22.623Z,10.13
2023-02-23T18:19:03.478Z,10.05
2023-02-23T19:46:01.711Z,9.46
2023-02-23T19:51:52.538Z,9.40
2023-02-23T19:57:57.585Z,9.34
2023-02-23T20:04:10.264Z,9.28
2023-02-23T20:09:40.363Z,9.24
2023-02-23T20:15:36.110Z,9.23
2023-02-23T20:21:42.389Z,9.22
2023-02-23T20:26:59.566Z,9.24
2023-02-23T20:32:07.796Z,10.66
2023-02-23T20:38:32.582Z,14.06
2023-02-23T20:44:01.443Z,13.77
2023-02-23T20:49:20.632Z,12.38
2023-02-23T20:55:09.517Z,11.66
2023-02-23T21:01:14.232Z,11.05
2023-02-23T21:06:42.228Z,10.54
2023-02-23T21:12:11.354Z,10.16
2023-02-23T21:17:18.134Z,9.85
2023-02-23T21:22:54.252Z,9.61
2023-02-23T21:28:18.750Z,9.40
2023-02-23T21:33:33.921Z,9.26
2023-02-23T21:39:18.169Z,9.14
2023-02-23T21:45:32.550Z,9.05
2023-02-23T21:51:29.399Z,8.95
2023-02-23T21:57:35.004Z,8.87
2023-02-23T22:03:55.127Z,8.79
2023-02-23T22:09:17.141Z,8.73
2023-02-23T22:15:09.863Z,9.88
2023-02-23T22:21:19.461Z,13.56
2023-02-23T22:26:59.673Z,13.40
2023-02-23T22:33:04.580Z,12.05
2023-02-23T22:38:44.607Z,11.30
2023-02-23T22:44:09.485Z,10.86
2023-02-23T22:50:22.714Z,10.51
2023-02-23T22:56:17.083Z,10.17
2023-02-23T23:02:24.404Z,9.90
2023-02-23T23:08:38.988Z,9.64
2023-02-23T23:14:22.778Z,9.42
2023-02-23T23:20:05.412Z,9.26
2023-02-23T23:25:47.813Z,9.13
2023-02-23T23:31:57.534Z,9.03
2023-02-23T23:37:42.472Z,8.95
2023-02-23T23:43:42.481Z,8.90
2023-02-23T23:49:51.840Z,8.85
2023-02-23T23:56:08.630Z,10.84
